sensor_id;sensor_type;location;lat;lon;timestamp;temperature;humidity
36444;DHT22;24692;45.642;13.806;2024-02-21T00:00:37;12.10;99.90
36444;DHT22;24692;45.642;13.806;2024-02-21T00:03:05;12.10;99.90
36444;DHT22;24692;45.642;13.806;2024-02-21T00:05:30;12.10;99.90
36444;DHT22;24692;45.642;13.806;2024-02-21T00:07:59;11.90;99.90
36444;DHT22;24692;45.642;13.806;2024-02-21T00:10:29;12.00;99.90
36444;DHT22;24692;45.642;13.806;2024-02-21T00:12:58;12.10;99.90
36444;DHT22;24692;45.642;13.806;2024-02-21T00:15:30;12.20;99.90
36444;DHT22;24692;45.642;13.806;2024-02-21T00:18:01;12.10;99.90
36444;DHT22;24692;45.642;13.806;2024-02-21T00:20:27;12.10;99.90
36444;DHT22;24692;45.642;13.806;2024-02-21T00:22:54;12.20;99.90
36444;DHT22;24692;45.642;13.806;2024-02-21T00:25:20;12.10;99.90
36444;DHT22;24692;45.642;13.806;2024-02-21T00:27:49;12.10;99.90
36444;DHT22;24692;45.642;13.806;2024-02-21T00:30:26;12.20;99.90
36444;DHT22;24692;45.642;13.806;2024-02-21T00:32:56;12.30;99.90
36444;DHT22;24692;45.642;13.806;2024-02-21T00:35:24;12.40;99.90
36444;DHT22;24692;45.642;13.806;2024-02-21T00:37:51;12.40;99.90
36444;DHT22;24692;45.642;13.806;2024-02-21T00:40:19;12.40;99.90
36444;DHT22;24692;45.642;13.806;2024-02-21T00:42:49;12.40;99.90
36444;DHT22;24692;45.642;13.806;2024-02-21T00:45:21;12.30;99.90
36444;DHT22;24692;45.642;13.806;2024-02-21T00:47:48;12.30;99.90
36444;DHT22;24692;45.642;13.806;2024-02-21T00:50:14;12.30;99.90
36444;DHT22;24692;45.642;13.806;2024-02-21T00:52:41;12.30;99.90
36444;DHT22;24692;45.642;13.806;2024-02-21T00:55:12;12.20;99.90
36444;DHT22;24692;45.642;13.806;2024-02-21T00:57:38;12.10;99.90
36444;DHT22;24692;45.642;13.806;2024-02-21T01:00:05;12.00;99.90
36444;DHT22;24692;45.642;13.806;2024-02-21T01:02:35;11.90;99.90
36444;DHT22;24692;45.642;13.806;2024-02-21T01:05:10;11.80;99.90
36444;DHT22;24692;45.642;13.806;2024-02-21T01:07:37;11.60;99.90
36444;DHT22;24692;45.642;13.806;2024-02-21T01:10:04;11.50;99.90
36444;DHT22;24692;45.642;13.806;2024-02-21T01:12:32;11.30;99.90
36444;DHT22;24692;45.642;13.806;2024-02-21T01:14:57;11.40;99.90
36444;DHT22;24692;45.642;13.806;2024-02-21T01:17:25;11.30;99.90
36444;DHT22;24692;45.642;13.806;2024-02-21T01:19:54;11.20;99.90
36444;DHT22;24692;45.642;13.806;2024-02-21T01:22:22;11.00;99.90
36444;DHT22;24692;45.642;13.806;2024-02-21T01:24:49;11.00;99.90
36444;DHT22;24692;45.642;13.806;2024-02-21T01:27:15;11.10;99.90
36444;DHT22;24692;45.642;13.806;2024-02-21T01:29:43;11.10;99.90
36444;DHT22;24692;45.642;13.806;2024-02-21T01:32:12;11.20;99.90
36444;DHT22;24692;45.642;13.806;2024-02-21T01:34:38;11.20;99.90
36444;DHT22;24692;45.642;13.806;2024-02-21T01:37:07;11.30;99.90
36444;DHT22;24692;45.642;13.806;2024-02-21T01:39:41;11.40;99.90
36444;DHT22;24692;45.642;13.806;2024-02-21T01:42:11;11.30;99.90
36444;DHT22;24692;45.642;13.806;2024-02-21T01:44:37;11.20;99.90
36444;DHT22;24692;45.642;13.806;2024-02-21T01:47:04;11.20;99.90
36444;DHT22;24692;45.642;13.806;2024-02-21T01:49:32;11.20;99.90
36444;DHT22;24692;45.642;13.806;2024-02-21T01:51:59;11.20;99.90
36444;DHT22;24692;45.642;13.806;2024-02-21T01:54:25;11.30;99.90
36444;DHT22;24692;45.642;13.806;2024-02-21T01:56:54;11.30;99.90
36444;DHT22;24692;45.642;13.806;2024-02-21T01:59:21;11.30;99.90
36444;DHT22;24692;45.642;13.806;2024-02-21T02:01:48;11.30;99.90
36444;DHT22;24692;45.642;13.806;2024-02-21T02:04:20;11.20;99.90
36444;DHT22;24692;45.642;13.806;2024-02-21T02:06:50;11.20;99.90
36444;DHT22;24692;45.642;13.806;2024-02-21T02:09:21;11.10;99.90
36444;DHT22;24692;45.642;13.806;2024-02-21T02:11:49;11.10;99.90
36444;DHT22;24692;45.642;13.806;2024-02-21T02:14:15;11.10;99.90
36444;DHT22;24692;45.642;13.806;2024-02-21T02:16:40;11.10;99.90
36444;DHT22;24692;45.642;13.806;2024-02-21T02:19:07;11.00;99.90
36444;DHT22;24692;45.642;13.806;2024-02-21T02:21:40;11.10;99.90
36444;DHT22;24692;45.642;13.806;2024-02-21T02:24:15;11.20;99.90
36444;DHT22;24692;45.642;13.806;2024-02-21T02:26:42;11.20;99.90
36444;DHT22;24692;45.642;13.806;2024-02-21T02:29:13;11.30;99.90
36444;DHT22;24692;45.642;13.806;2024-02-21T02:31:43;11.40;99.90
36444;DHT22;24692;45.642;13.806;2024-02-21T02:34:10;11.50;99.90
36444;DHT22;24692;45.642;13.806;2024-02-21T02:36:36;11.50;99.90
36444;DHT22;24692;45.642;13.806;2024-02-21T02:39:04;11.60;99.90
36444;DHT22;24692;45.642;13.806;2024-02-21T02:41:35;11.60;99.90
36444;DHT22;24692;45.642;13.806;2024-02-21T02:44:01;11.60;99.90
36444;DHT22;24692;45.642;13.806;2024-02-21T02:46:29;11.70;99.90
36444;DHT22;24692;45.642;13.806;2024-02-21T02:48:56;11.70;99.90
36444;DHT22;24692;45.642;13.806;2024-02-21T02:51:22;11.70;99.90
36444;DHT22;24692;45.642;13.806;2024-02-21T02:53:47;11.60;99.90
36444;DHT22;24692;45.642;13.806;2024-02-21T02:56:18;11.60;99.90
36444;DHT22;24692;45.642;13.806;2024-02-21T02:58:43;11.60;99.90
36444;DHT22;24692;45.642;13.806;2024-02-21T03:01:10;11.60;99.90
36444;DHT22;24692;45.642;13.806;2024-02-21T03:03:36;11.60;99.90
36444;DHT22;24692;45.642;13.806;2024-02-21T03:06:02;11.50;99.90
36444;DHT22;24692;45.642;13.806;2024-02-21T03:08:29;11.50;99.90
36444;DHT22;24692;45.642;13.806;2024-02-21T03:10:58;11.40;99.90
36444;DHT22;24692;45.642;13.806;2024-02-21T03:13:25;11.30;99.90
36444;DHT22;24692;45.642;13.806;2024-02-21T03:15:52;11.30;99.90
36444;DHT22;24692;45.642;13.806;2024-02-21T03:18:20;11.30;99.90
36444;DHT22;24692;45.642;13.806;2024-02-21T03:20:48;11.30;99.90
36444;DHT22;24692;45.642;13.806;2024-02-21T03:23:14;11.40;99.90
36444;DHT22;24692;45.642;13.806;2024-02-21T03:25:40;11.30;99.90
36444;DHT22;24692;45.642;13.806;2024-02-21T03:28:07;11.30;99.90
36444;DHT22;24692;45.642;13.806;2024-02-21T03:30:33;11.30;99.90
36444;DHT22;24692;45.642;13.806;2024-02-21T03:33:00;11.30;99.90
36444;DHT22;24692;45.642;13.806;2024-02-21T03:35:26;11.30;99.90
36444;DHT22;24692;45.642;13.806;2024-02-21T03:37:55;11.30;99.90
36444;DHT22;24692;45.642;13.806;2024-02-21T03:40:20;11.30;99.90
36444;DHT22;24692;45.642;13.806;2024-02-21T03:42:46;11.30;99.90
36444;DHT22;24692;45.642;13.806;2024-02-21T03:45:12;11.40;99.90
36444;DHT22;24692;45.642;13.806;2024-02-21T03:47:38;11.40;99.90
36444;DHT22;24692;45.642;13.806;2024-02-21T03:50:06;11.50;99.90
36444;DHT22;24692;45.642;13.806;2024-02-21T03:52:34;11.40;99.90
36444;DHT22;24692;45.642;13.806;2024-02-21T03:55:01;11.40;99.90
36444;DHT22;24692;45.642;13.806;2024-02-21T03:57:27;11.40;99.90
36444;DHT22;24692;45.642;13.806;2024-02-21T03:59:57;11.40;99.90
36444;DHT22;24692;45.642;13.806;2024-02-21T04:02:23;11.40;99.90
36444;DHT22;24692;45.642;13.806;2024-02-21T04:04:51;11.40;99.90
36444;DHT22;24692;45.642;13.806;2024-02-21T04:07:16;11.40;99.90
36444;DHT22;24692;45.642;13.806;2024-02-21T04:09:42;11.40;99.90
36444;DHT22;24692;45.642;13.806;2024-02-21T04:12:08;11.30;99.90
36444;DHT22;24692;45.642;13.806;2024-02-21T04:14:35;11.30;99.90
36444;DHT22;24692;45.642;13.806;2024-02-21T04:17:00;11.30;99.90
36444;DHT22;24692;45.642;13.806;2024-02-21T04:19:26;11.30;99.90
36444;DHT22;24692;45.642;13.806;2024-02-21T04:21:52;11.20;99.90
36444;DHT22;24692;45.642;13.806;2024-02-21T04:24:18;11.20;99.90
36444;DHT22;24692;45.642;13.806;2024-02-21T04:26:43;11.10;99.90
36444;DHT22;24692;45.642;13.806;2024-02-21T04:29:09;11.00;99.90
36444;DHT22;24692;45.642;13.806;2024-02-21T04:31:35;11.00;99.90
36444;DHT22;24692;45.642;13.806;2024-02-21T04:34:01;11.00;99.90
36444;DHT22;24692;45.642;13.806;2024-02-21T04:36:28;11.00;99.90
36444;DHT22;24692;45.642;13.806;2024-02-21T04:38:54;10.90;99.90
36444;DHT22;24692;45.642;13.806;2024-02-21T04:41:19;10.90;99.90
36444;DHT22;24692;45.642;13.806;2024-02-21T04:43:48;11.00;99.90
36444;DHT22;24692;45.642;13.806;2024-02-21T04:46:14;11.00;99.90
36444;DHT22;24692;45.642;13.806;2024-02-21T04:48:39;11.00;99.90
36444;DHT22;24692;45.642;13.806;2024-02-21T04:51:05;11.00;99.90
36444;DHT22;24692;45.642;13.806;2024-02-21T04:53:30;10.90;99.90
36444;DHT22;24692;45.642;13.806;2024-02-21T04:55:56;10.80;99.90
36444;DHT22;24692;45.642;13.806;2024-02-21T04:58:22;10.80;99.90
36444;DHT22;24692;45.642;13.806;2024-02-21T05:00:47;10.80;99.90
36444;DHT22;24692;45.642;13.806;2024-02-21T05:03:13;10.70;99.90
36444;DHT22;24692;45.642;13.806;2024-02-21T05:05:39;10.80;99.90
36444;DHT22;24692;45.642;13.806;2024-02-21T05:08:04;10.80;99.90
36444;DHT22;24692;45.642;13.806;2024-02-21T05:10:30;10.80;99.90
36444;DHT22;24692;45.642;13.806;2024-02-21T05:12:57;10.70;99.90
36444;DHT22;24692;45.642;13.806;2024-02-21T05:15:23;10.70;99.90
36444;DHT22;24692;45.642;13.806;2024-02-21T05:17:49;10.70;99.90
36444;DHT22;24692;45.642;13.806;2024-02-21T05:20:15;10.60;99.90
36444;DHT22;24692;45.642;13.806;2024-02-21T05:22:41;10.60;99.90
36444;DHT22;24692;45.642;13.806;2024-02-21T05:25:07;10.50;99.90
36444;DHT22;24692;45.642;13.806;2024-02-21T05:27:32;10.50;99.90
36444;DHT22;24692;45.642;13.806;2024-02-21T05:29:59;10.40;99.90
36444;DHT22;24692;45.642;13.806;2024-02-21T05:32:25;10.40;99.90
36444;DHT22;24692;45.642;13.806;2024-02-21T05:34:51;10.50;99.90
36444;DHT22;24692;45.642;13.806;2024-02-21T05:37:17;10.50;99.90
36444;DHT22;24692;45.642;13.806;2024-02-21T05:39:43;10.50;99.90
36444;DHT22;24692;45.642;13.806;2024-02-21T05:42:09;10.60;99.90
36444;DHT22;24692;45.642;13.806;2024-02-21T05:44:35;10.70;99.90
36444;DHT22;24692;45.642;13.806;2024-02-21T05:47:00;10.70;99.90
36444;DHT22;24692;45.642;13.806;2024-02-21T05:49:26;10.70;99.90
36444;DHT22;24692;45.642;13.806;2024-02-21T05:51:51;10.80;99.90
36444;DHT22;24692;45.642;13.806;2024-02-21T05:54:17;10.80;99.90
36444;DHT22;24692;45.642;13.806;2024-02-21T05:56:46;10.80;99.90
36444;DHT22;24692;45.642;13.806;2024-02-21T05:59:12;10.80;99.90
36444;DHT22;24692;45.642;13.806;2024-02-21T06:01:38;10.80;99.90
36444;DHT22;24692;45.642;13.806;2024-02-21T06:04:03;10.80;99.90
36444;DHT22;24692;45.642;13.806;2024-02-21T06:06:30;10.80;99.90
36444;DHT22;24692;45.642;13.806;2024-02-21T06:08:56;10.70;99.90
36444;DHT22;24692;45.642;13.806;2024-02-21T06:11:21;10.80;99.90
36444;DHT22;24692;45.642;13.806;2024-02-21T06:13:47;10.80;99.90
36444;DHT22;24692;45.642;13.806;2024-02-21T06:16:13;10.80;99.90
36444;DHT22;24692;45.642;13.806;2024-02-21T06:18:39;10.80;99.90
36444;DHT22;24692;45.642;13.806;2024-02-21T06:21:05;10.80;99.90
36444;DHT22;24692;45.642;13.806;2024-02-21T06:23:30;10.80;99.90
36444;DHT22;24692;45.642;13.806;2024-02-21T06:25:56;10.80;99.90
36444;DHT22;24692;45.642;13.806;2024-02-21T06:28:22;10.80;99.90
36444;DHT22;24692;45.642;13.806;2024-02-21T06:30:47;10.90;99.90
36444;DHT22;24692;45.642;13.806;2024-02-21T06:33:13;10.90;99.90
36444;DHT22;24692;45.642;13.806;2024-02-21T06:35:39;11.00;99.90
36444;DHT22;24692;45.642;13.806;2024-02-21T06:38:06;11.10;99.90
36444;DHT22;24692;45.642;13.806;2024-02-21T06:40:33;11.20;99.90
36444;DHT22;24692;45.642;13.806;2024-02-21T06:43:04;11.50;99.90
36444;DHT22;24692;45.642;13.806;2024-02-21T06:45:31;12.00;99.90
36444;DHT22;24692;45.642;13.806;2024-02-21T06:47:58;12.50;99.90
36444;DHT22;24692;45.642;13.806;2024-02-21T06:50:23;13.10;99.90
36444;DHT22;24692;45.642;13.806;2024-02-21T06:52:51;14.30;99.90
36444;DHT22;24692;45.642;13.806;2024-02-21T06:55:17;15.50;99.90
36444;DHT22;24692;45.642;13.806;2024-02-21T06:57:46;16.20;99.90
36444;DHT22;24692;45.642;13.806;2024-02-21T07:00:15;15.90;99.90
36444;DHT22;24692;45.642;13.806;2024-02-21T07:02:44;15.60;99.90
36444;DHT22;24692;45.642;13.806;2024-02-21T07:05:15;15.20;99.90
36444;DHT22;24692;45.642;13.806;2024-02-21T07:07:43;14.70;99.90
36444;DHT22;24692;45.642;13.806;2024-02-21T07:10:09;14.40;99.90
36444;DHT22;24692;45.642;13.806;2024-02-21T07:12:34;13.90;99.90
36444;DHT22;24692;45.642;13.806;2024-02-21T07:15:02;13.50;99.90
36444;DHT22;24692;45.642;13.806;2024-02-21T07:17:28;13.30;99.90
36444;DHT22;24692;45.642;13.806;2024-02-21T07:19:54;13.10;99.90
36444;DHT22;24692;45.642;13.806;2024-02-21T07:22:22;13.30;99.90
36444;DHT22;24692;45.642;13.806;2024-02-21T07:24:49;13.70;99.90
36444;DHT22;24692;45.642;13.806;2024-02-21T07:27:15;13.90;99.90
36444;DHT22;24692;45.642;13.806;2024-02-21T07:29:42;14.60;99.90
36444;DHT22;24692;45.642;13.806;2024-02-21T07:32:12;15.70;99.90
36444;DHT22;24692;45.642;13.806;2024-02-21T07:34:38;17.00;99.90
36444;DHT22;24692;45.642;13.806;2024-02-21T07:37:04;17.90;99.90
36444;DHT22;24692;45.642;13.806;2024-02-21T07:39:30;18.10;99.90
36444;DHT22;24692;45.642;13.806;2024-02-21T07:41:56;17.20;99.90
36444;DHT22;24692;45.642;13.806;2024-02-21T07:44:25;16.30;99.90
36444;DHT22;24692;45.642;13.806;2024-02-21T07:46:50;15.50;99.90
36444;DHT22;24692;45.642;13.806;2024-02-21T07:49:16;15.30;99.90
36444;DHT22;24692;45.642;13.806;2024-02-21T07:51:45;15.50;99.90
36444;DHT22;24692;45.642;13.806;2024-02-21T07:54:11;15.40;99.90
36444;DHT22;24692;45.642;13.806;2024-02-21T07:56:37;15.50;99.90
36444;DHT22;24692;45.642;13.806;2024-02-21T07:59:02;15.90;99.90
36444;DHT22;24692;45.642;13.806;2024-02-21T08:01:30;15.70;99.90
36444;DHT22;24692;45.642;13.806;2024-02-21T08:03:57;15.30;99.90
36444;DHT22;24692;45.642;13.806;2024-02-21T08:06:24;15.00;99.90
36444;DHT22;24692;45.642;13.806;2024-02-21T08:08:50;14.90;99.90
36444;DHT22;24692;45.642;13.806;2024-02-21T08:11:18;15.00;99.90
36444;DHT22;24692;45.642;13.806;2024-02-21T08:13:44;14.80;99.90
36444;DHT22;24692;45.642;13.806;2024-02-21T08:16:10;14.60;99.90
36444;DHT22;24692;45.642;13.806;2024-02-21T08:18:37;14.60;99.90
36444;DHT22;24692;45.642;13.806;2024-02-21T08:21:05;14.50;99.90
36444;DHT22;24692;45.642;13.806;2024-02-21T08:23:31;14.60;99.90
36444;DHT22;24692;45.642;13.806;2024-02-21T08:25:57;14.60;99.90
36444;DHT22;24692;45.642;13.806;2024-02-21T08:28:24;14.70;99.90
36444;DHT22;24692;45.642;13.806;2024-02-21T08:30:50;14.90;99.90
36444;DHT22;24692;45.642;13.806;2024-02-21T08:33:16;15.30;99.90
36444;DHT22;24692;45.642;13.806;2024-02-21T08:35:51;16.10;99.90
36444;DHT22;24692;45.642;13.806;2024-02-21T08:38:18;18.00;99.90
36444;DHT22;24692;45.642;13.806;2024-02-21T08:40:44;19.20;99.90
36444;DHT22;24692;45.642;13.806;2024-02-21T08:43:10;19.10;99.90
36444;DHT22;24692;45.642;13.806;2024-02-21T08:45:37;18.90;99.90
36444;DHT22;24692;45.642;13.806;2024-02-21T08:48:04;18.80;99.90
36444;DHT22;24692;45.642;13.806;2024-02-21T08:50:30;19.90;99.90
36444;DHT22;24692;45.642;13.806;2024-02-21T08:52:56;21.60;99.90
36444;DHT22;24692;45.642;13.806;2024-02-21T08:55:21;23.60;99.90
36444;DHT22;24692;45.642;13.806;2024-02-21T08:57:47;24.60;99.90
36444;DHT22;24692;45.642;13.806;2024-02-21T09:00:14;24.20;99.90
36444;DHT22;24692;45.642;13.806;2024-02-21T09:02:40;24.70;99.90
36444;DHT22;24692;45.642;13.806;2024-02-21T09:05:08;25.40;99.90
36444;DHT22;24692;45.642;13.806;2024-02-21T09:07:34;24.90;99.90
36444;DHT22;24692;45.642;13.806;2024-02-21T09:10:00;25.70;99.90
36444;DHT22;24692;45.642;13.806;2024-02-21T09:12:29;26.00;99.90
36444;DHT22;24692;45.642;13.806;2024-02-21T09:14:58;26.50;99.90
36444;DHT22;24692;45.642;13.806;2024-02-21T09:17:25;26.70;97.40
36444;DHT22;24692;45.642;13.806;2024-02-21T09:19:55;26.30;95.50
36444;DHT22;24692;45.642;13.806;2024-02-21T09:22:25;25.70;96.10
36444;DHT22;24692;45.642;13.806;2024-02-21T09:24:52;25.70;95.50
36444;DHT22;24692;45.642;13.806;2024-02-21T09:27:19;26.60;96.70
36444;DHT22;24692;45.642;13.806;2024-02-21T09:29:44;25.50;94.80
36444;DHT22;24692;45.642;13.806;2024-02-21T09:32:14;24.20;96.40
36444;DHT22;24692;45.642;13.806;2024-02-21T09:34:43;24.00;96.60
36444;DHT22;24692;45.642;13.806;2024-02-21T09:37:11;24.50;96.90
36444;DHT22;24692;45.642;13.806;2024-02-21T09:39:38;25.00;96.20
36444;DHT22;24692;45.642;13.806;2024-02-21T09:42:08;25.40;96.10
36444;DHT22;24692;45.642;13.806;2024-02-21T09:44:37;25.20;96.40
36444;DHT22;24692;45.642;13.806;2024-02-21T09:47:22;25.10;96.20
36444;DHT22;24692;45.642;13.806;2024-02-21T09:49:51;24.40;96.90
36444;DHT22;24692;45.642;13.806;2024-02-21T09:52:19;25.20;96.70
36444;DHT22;24692;45.642;13.806;2024-02-21T09:54:47;25.20;94.70
36444;DHT22;24692;45.642;13.806;2024-02-21T09:57:20;24.30;95.80
36444;DHT22;24692;45.642;13.806;2024-02-21T09:59:48;24.20;96.30
36444;DHT22;24692;45.642;13.806;2024-02-21T10:02:18;24.60;95.70
36444;DHT22;24692;45.642;13.806;2024-02-21T10:04:46;24.80;97.30
36444;DHT22;24692;45.642;13.806;2024-02-21T10:07:15;24.70;97.30
36444;DHT22;24692;45.642;13.806;2024-02-21T10:09:42;24.60;95.50
36444;DHT22;24692;45.642;13.806;2024-02-21T10:12:12;23.80;96.40
36444;DHT22;24692;45.642;13.806;2024-02-21T10:14:39;24.10;97.00
36444;DHT22;24692;45.642;13.806;2024-02-21T10:17:05;24.10;95.10
36444;DHT22;24692;45.642;13.806;2024-02-21T10:19:36;24.10;95.20
36444;DHT22;24692;45.642;13.806;2024-02-21T10:22:07;24.30;97.40
36444;DHT22;24692;45.642;13.806;2024-02-21T10:24:45;24.30;95.20
36444;DHT22;24692;45.642;13.806;2024-02-21T10:27:11;23.30;95.50
36444;DHT22;24692;45.642;13.806;2024-02-21T10:29:37;23.40;97.70
36444;DHT22;24692;45.642;13.806;2024-02-21T10:32:05;23.60;95.80
36444;DHT22;24692;45.642;13.806;2024-02-21T10:34:32;23.20;95.90
36444;DHT22;24692;45.642;13.806;2024-02-21T10:37:02;23.10;95.90
36444;DHT22;24692;45.642;13.806;2024-02-21T10:39:33;22.60;95.90
36444;DHT22;24692;45.642;13.806;2024-02-21T10:42:01;23.00;96.60
36444;DHT22;24692;45.642;13.806;2024-02-21T10:44:36;22.70;96.80
36444;DHT22;24692;45.642;13.806;2024-02-21T10:47:11;23.30;96.20
36444;DHT22;24692;45.642;13.806;2024-02-21T10:49:47;23.50;96.80
36444;DHT22;24692;45.642;13.806;2024-02-21T10:55:54;23.50;96.40
36444;DHT22;24692;45.642;13.806;2024-02-21T10:58:22;23.70;94.70
36444;DHT22;24692;45.642;13.806;2024-02-21T11:00:49;23.40;94.70
36444;DHT22;24692;45.642;13.806;2024-02-21T11:03:18;23.40;94.70
36444;DHT22;24692;45.642;13.806;2024-02-21T11:05:45;23.60;94.50
36444;DHT22;24692;45.642;13.806;2024-02-21T11:08:13;24.40;94.40
36444;DHT22;24692;45.642;13.806;2024-02-21T11:10:47;24.90;96.90
36444;DHT22;24692;45.642;13.806;2024-02-21T11:13:13;25.00;93.80
36444;DHT22;24692;45.642;13.806;2024-02-21T11:15:42;25.00;93.80
36444;DHT22;24692;45.642;13.806;2024-02-21T11:18:08;24.30;93.50
36444;DHT22;24692;45.642;13.806;2024-02-21T11:20:37;23.20;94.40
36444;DHT22;24692;45.642;13.806;2024-02-21T11:23:05;22.70;95.00
36444;DHT22;24692;45.642;13.806;2024-02-21T11:25:30;22.80;95.00
36444;DHT22;24692;45.642;13.806;2024-02-21T11:28:04;23.50;94.80
36444;DHT22;24692;45.642;13.806;2024-02-21T11:30:31;23.90;94.20
36444;DHT22;24692;45.642;13.806;2024-02-21T11:33:06;23.40;94.60
36444;DHT22;24692;45.642;13.806;2024-02-21T11:35:33;22.70;95.70
36444;DHT22;24692;45.642;13.806;2024-02-21T11:38:12;22.30;95.90
36444;DHT22;24692;45.642;13.806;2024-02-21T11:40:45;22.20;95.00
36444;DHT22;24692;45.642;13.806;2024-02-21T11:43:11;22.20;96.70
36444;DHT22;24692;45.642;13.806;2024-02-21T11:45:37;22.70;95.50
36444;DHT22;24692;45.642;13.806;2024-02-21T11:48:06;23.90;94.80
36444;DHT22;24692;45.642;13.806;2024-02-21T11:50:37;24.00;94.60
36444;DHT22;24692;45.642;13.806;2024-02-21T11:53:06;23.40;94.30
36444;DHT22;24692;45.642;13.806;2024-02-21T11:55:33;22.60;94.90
36444;DHT22;24692;45.642;13.806;2024-02-21T11:58:01;22.20;95.40
36444;DHT22;24692;45.642;13.806;2024-02-21T12:00:28;22.00;95.80
36444;DHT22;24692;45.642;13.806;2024-02-21T12:02:55;22.70;96.00
36444;DHT22;24692;45.642;13.806;2024-02-21T12:05:29;22.20;95.60
36444;DHT22;24692;45.642;13.806;2024-02-21T12:07:54;22.80;95.70
36444;DHT22;24692;45.642;13.806;2024-02-21T12:10:21;22.00;96.00
36444;DHT22;24692;45.642;13.806;2024-02-21T12:12:46;22.30;96.10
36444;DHT22;24692;45.642;13.806;2024-02-21T12:15:12;22.20;95.90
36444;DHT22;24692;45.642;13.806;2024-02-21T12:17:41;22.60;95.80
36444;DHT22;24692;45.642;13.806;2024-02-21T12:20:08;22.50;95.60
36444;DHT22;24692;45.642;13.806;2024-02-21T12:22:43;22.30;94.90
36444;DHT22;24692;45.642;13.806;2024-02-21T12:25:19;21.70;95.50
36444;DHT22;24692;45.642;13.806;2024-02-21T12:27:46;21.90;96.00
36444;DHT22;24692;45.642;13.806;2024-02-21T12:30:12;21.90;96.00
36444;DHT22;24692;45.642;13.806;2024-02-21T12:32:38;22.00;95.50
36444;DHT22;24692;45.642;13.806;2024-02-21T12:35:04;21.10;95.60
36444;DHT22;24692;45.642;13.806;2024-02-21T12:37:30;21.20;96.80
36444;DHT22;24692;45.642;13.806;2024-02-21T12:39:55;20.90;96.60
36444;DHT22;24692;45.642;13.806;2024-02-21T12:42:21;20.80;96.60
36444;DHT22;24692;45.642;13.806;2024-02-21T12:44:49;20.80;97.00
36444;DHT22;24692;45.642;13.806;2024-02-21T12:47:15;20.80;96.80
36444;DHT22;24692;45.642;13.806;2024-02-21T12:49:40;21.00;97.20
36444;DHT22;24692;45.642;13.806;2024-02-21T12:52:06;21.20;97.20
36444;DHT22;24692;45.642;13.806;2024-02-21T12:54:32;20.60;97.30
36444;DHT22;24692;45.642;13.806;2024-02-21T12:56:59;20.10;97.80
36444;DHT22;24692;45.642;13.806;2024-02-21T12:59:28;20.50;99.10
36444;DHT22;24692;45.642;13.806;2024-02-21T13:01:54;20.90;98.30
36444;DHT22;24692;45.642;13.806;2024-02-21T13:04:20;21.00;98.40
36444;DHT22;24692;45.642;13.806;2024-02-21T13:06:48;21.00;98.40
36444;DHT22;24692;45.642;13.806;2024-02-21T13:09:14;20.70;98.30
36444;DHT22;24692;45.642;13.806;2024-02-21T13:11:40;20.60;98.70
36444;DHT22;24692;45.642;13.806;2024-02-21T13:14:07;20.50;99.30
36444;DHT22;24692;45.642;13.806;2024-02-21T13:16:33;20.70;99.60
36444;DHT22;24692;45.642;13.806;2024-02-21T13:19:05;21.00;99.70
36444;DHT22;24692;45.642;13.806;2024-02-21T13:21:31;21.50;99.50
36444;DHT22;24692;45.642;13.806;2024-02-21T13:23:56;20.80;99.90
36444;DHT22;24692;45.642;13.806;2024-02-21T13:26:22;21.70;99.90
36444;DHT22;24692;45.642;13.806;2024-02-21T13:28:48;21.40;99.30
36444;DHT22;24692;45.642;13.806;2024-02-21T13:31:14;21.00;99.90
36444;DHT22;24692;45.642;13.806;2024-02-21T13:33:42;20.80;99.90
36444;DHT22;24692;45.642;13.806;2024-02-21T13:36:10;20.10;99.90
36444;DHT22;24692;45.642;13.806;2024-02-21T13:38:36;20.20;99.90
36444;DHT22;24692;45.642;13.806;2024-02-21T13:41:06;20.50;99.90
36444;DHT22;24692;45.642;13.806;2024-02-21T13:43:33;20.60;99.90
36444;DHT22;24692;45.642;13.806;2024-02-21T13:46:02;20.50;99.90
36444;DHT22;24692;45.642;13.806;2024-02-21T13:48:35;20.70;99.90
36444;DHT22;24692;45.642;13.806;2024-02-21T13:51:01;20.80;99.90
36444;DHT22;24692;45.642;13.806;2024-02-21T13:53:28;20.10;99.90
36444;DHT22;24692;45.642;13.806;2024-02-21T13:55:53;19.80;99.90
36444;DHT22;24692;45.642;13.806;2024-02-21T13:58:19;19.60;99.90
36444;DHT22;24692;45.642;13.806;2024-02-21T14:00:46;18.80;99.90
36444;DHT22;24692;45.642;13.806;2024-02-21T14:03:12;19.80;99.90
36444;DHT22;24692;45.642;13.806;2024-02-21T14:05:38;20.90;99.90
36444;DHT22;24692;45.642;13.806;2024-02-21T14:08:06;21.20;99.90
36444;DHT22;24692;45.642;13.806;2024-02-21T14:10:32;20.70;99.90
36444;DHT22;24692;45.642;13.806;2024-02-21T14:12:57;20.10;99.90
36444;DHT22;24692;45.642;13.806;2024-02-21T14:15:23;19.60;99.90
36444;DHT22;24692;45.642;13.806;2024-02-21T14:17:50;19.30;99.90
36444;DHT22;24692;45.642;13.806;2024-02-21T14:20:16;19.40;99.90
36444;DHT22;24692;45.642;13.806;2024-02-21T14:22:41;20.00;99.90
36444;DHT22;24692;45.642;13.806;2024-02-21T14:25:07;20.70;99.90
36444;DHT22;24692;45.642;13.806;2024-02-21T14:27:33;21.80;99.90
36444;DHT22;24692;45.642;13.806;2024-02-21T14:30:01;22.30;99.90
36444;DHT22;24692;45.642;13.806;2024-02-21T14:32:27;21.70;99.90
36444;DHT22;24692;45.642;13.806;2024-02-21T14:34:53;22.00;99.90
36444;DHT22;24692;45.642;13.806;2024-02-21T14:37:19;20.80;99.90
36444;DHT22;24692;45.642;13.806;2024-02-21T14:39:44;20.80;99.90
36444;DHT22;24692;45.642;13.806;2024-02-21T14:42:10;21.10;99.90
36444;DHT22;24692;45.642;13.806;2024-02-21T14:44:36;20.80;99.90
36444;DHT22;24692;45.642;13.806;2024-02-21T14:47:03;20.60;99.90
36444;DHT22;24692;45.642;13.806;2024-02-21T14:49:31;20.80;99.90
36444;DHT22;24692;45.642;13.806;2024-02-21T14:51:57;20.70;99.90
36444;DHT22;24692;45.642;13.806;2024-02-21T14:54:23;20.50;99.90
36444;DHT22;24692;45.642;13.806;2024-02-21T14:56:49;19.20;99.90
36444;DHT22;24692;45.642;13.806;2024-02-21T14:59:15;19.20;99.90
36444;DHT22;24692;45.642;13.806;2024-02-21T15:01:42;18.70;99.90
36444;DHT22;24692;45.642;13.806;2024-02-21T15:04:08;19.10;99.90
36444;DHT22;24692;45.642;13.806;2024-02-21T15:06:33;19.20;99.90
36444;DHT22;24692;45.642;13.806;2024-02-21T15:09:02;18.50;99.90
36444;DHT22;24692;45.642;13.806;2024-02-21T15:11:28;18.20;99.90
36444;DHT22;24692;45.642;13.806;2024-02-21T15:13:54;18.80;99.90
36444;DHT22;24692;45.642;13.806;2024-02-21T15:16:20;18.70;99.90
36444;DHT22;24692;45.642;13.806;2024-02-21T15:18:45;17.90;99.90